createdAt,value
2022-08-17T00:01:27.733Z,12.07
2022-08-17T00:06:31.640Z,12.87
2022-08-17T00:12:42.249Z,13.27
2022-08-17T00:17:10.022Z,12.17
2022-08-17T00:22:31.783Z,11.30
2022-08-17T00:27:53.661Z,12.77
2022-08-17T00:33:21.905Z,12.23
2022-08-17T00:38:25.571Z,11.63
2022-08-17T00:43:46.043Z,11.43
2022-08-17T00:49:08.837Z,11.00
2022-08-17T00:54:16.292Z,12.23
2022-08-17T00:59:21.491Z,12.20
2022-08-17T01:04:24.759Z,11.47
2022-08-17T01:09:27.327Z,11.87
2022-08-17T01:14:29.635Z,11.10
2022-08-17T01:19:36.171Z,11.83
2022-08-17T01:24:42.010Z,13.07
2022-08-17T01:29:48.657Z,11.63
2022-08-17T01:34:52.865Z,11.90
2022-08-17T01:40:00.891Z,12.53
2022-08-17T01:45:09.151Z,11.45
2022-08-17T01:50:20.827Z,12.50
2022-08-17T01:55:40.720Z,11.77
2022-08-17T02:01:02.030Z,11.68
2022-08-17T02:06:06.623Z,13.00
2022-08-17T02:11:28.961Z,10.33
2022-08-17T02:16:51.542Z,11.90
2022-08-17T02:21:54.663Z,11.57
2022-08-17T02:26:56.941Z,13.17
2022-08-17T02:32:01.945Z,11.17
2022-08-17T02:37:04.369Z,12.07
2022-08-17T02:42:07.432Z,11.33
2022-08-17T02:47:11.186Z,11.20
2022-08-17T02:52:13.525Z,11.03
2022-08-17T02:57:15.956Z,11.60
2022-08-17T03:02:41.826Z,10.87
2022-08-17T03:07:44.582Z,12.63
2022-08-17T03:12:47.761Z,12.00
2022-08-17T03:18:08.781Z,12.30
2022-08-17T03:23:41.570Z,11.73
2022-08-17T03:28:44.109Z,10.83
2022-08-17T03:33:46.461Z,10.50
2022-08-17T03:38:48.792Z,9.93
2022-08-17T03:43:53.441Z,9.63
2022-08-17T03:49:14.251Z,10.20
2022-08-17T03:54:34.973Z,9.90
2022-08-17T03:59:39.049Z,9.73
2022-08-17T04:04:41.517Z,9.87
2022-08-17T04:09:43.888Z,10.10
2022-08-17T04:14:52.098Z,8.77
2022-08-17T04:19:56.759Z,9.63
2022-08-17T04:24:59.685Z,10.47
2022-08-17T04:30:02.505Z,8.60
2022-08-17T04:35:06.605Z,9.53
2022-08-17T04:40:27.845Z,10.33
2022-08-17T04:45:32.233Z,9.13
2022-08-17T04:50:36.714Z,8.63
2022-08-17T04:55:42.811Z,10.33
2022-08-17T05:00:45.365Z,8.97
2022-08-17T05:06:06.384Z,8.30
2022-08-17T05:11:08.845Z,9.25
2022-08-17T05:16:11.593Z,9.20
2022-08-17T05:21:14.243Z,8.50
2022-08-17T05:26:26.350Z,8.48
2022-08-17T05:31:29.921Z,8.25
2022-08-17T05:36:50.281Z,8.50
2022-08-17T05:41:52.870Z,7.43
2022-08-17T05:47:14.133Z,7.95
2022-08-17T05:52:56.649Z,6.47
2022-08-17T05:58:04.800Z,7.25
2022-08-17T06:03:13.126Z,6.43
2022-08-17T06:08:24.494Z,6.70
2022-08-17T06:14:05.432Z,6.45
2022-08-17T06:19:19.292Z,6.28
2022-08-17T06:24:28.112Z,6.70
2022-08-17T06:29:42.841Z,5.88
2022-08-17T06:34:46.570Z,5.18
2022-08-17T06:40:20.695Z,6.05
2022-08-17T06:45:29.110Z,6.03
2022-08-17T06:55:57.500Z,6.35
2022-08-17T07:01:40.705Z,5.93
2022-08-17T07:06:54.189Z,5.95
2022-08-17T07:12:16.967Z,4.93
2022-08-17T07:17:21.447Z,6.38
2022-08-17T07:23:09.680Z,5.90
2022-08-17T07:28:13.277Z,4.85
2022-08-17T07:33:20.409Z,5.68
2022-08-17T07:38:27.985Z,5.60
2022-08-17T07:43:44.903Z,4.77
2022-08-17T07:48:50.428Z,5.03
2022-08-17T07:54:13.583Z,5.75
2022-08-17T07:59:24.111Z,5.40
2022-08-17T08:05:00.563Z,5.63
2022-08-17T08:10:28.538Z,5.68
2022-08-17T08:15:53.861Z,6.05
2022-08-17T08:21:26.266Z,5.93
2022-08-17T08:26:43.309Z,5.60
2022-08-17T08:31:48.492Z,5.00
2022-08-17T08:37:14.974Z,5.97
2022-08-17T08:42:50.650Z,5.82
2022-08-17T08:48:58.044Z,5.22
2022-08-17T08:53:54.187Z,4.72
2022-08-17T08:59:35.715Z,4.97
2022-08-17T09:05:13.788Z,4.80
2022-08-17T09:10:32.045Z,4.80
2022-08-17T09:16:00.650Z,5.20
2022-08-17T09:21:29.589Z,5.40
2022-08-17T09:27:11.070Z,5.40
2022-08-17T09:32:41.740Z,6.07
2022-08-17T09:38:05.715Z,5.40
2022-08-17T09:43:34.321Z,5.50
2022-08-17T09:53:41.322Z,5.07
2022-08-17T09:59:14.204Z,5.70
2022-08-17T10:04:33.054Z,5.18
2022-08-17T10:09:57.152Z,5.13
2022-08-17T10:15:25.392Z,5.63
2022-08-17T10:20:41.453Z,6.28
2022-08-17T10:26:10.157Z,5.63
2022-08-17T10:31:35.904Z,5.80
2022-08-17T10:36:46.507Z,6.50
2022-08-17T10:42:32.292Z,5.45
2022-08-17T10:47:56.092Z,5.43
2022-08-17T10:52:59.697Z,5.55
2022-08-17T10:58:24.762Z,6.25
2022-08-17T11:03:33.161Z,6.63
2022-08-17T11:08:47.598Z,6.07
2022-08-17T11:14:04.304Z,6.13
2022-08-17T11:19:30.864Z,6.22
2022-08-17T11:24:36.510Z,7.10
2022-08-17T11:29:58.099Z,7.10
2022-08-17T11:35:39.102Z,6.63
2022-08-17T11:40:46.619Z,7.63
2022-08-17T11:46:18.260Z,8.48
2022-08-17T11:51:34.737Z,7.72
2022-08-17T11:56:45.014Z,8.30
2022-08-17T12:01:57.372Z,8.68
2022-08-17T12:07:19.139Z,8.60
2022-08-17T12:12:30.097Z,8.80
2022-08-17T12:17:40.254Z,8.80
2022-08-17T12:23:10.521Z,8.30
2022-08-17T12:33:36.574Z,9.63
2022-08-17T12:38:39.032Z,10.60
2022-08-17T12:43:41.355Z,10.25
2022-08-17T12:48:59.562Z,10.38
2022-08-17T12:54:02.623Z,11.23
2022-08-17T12:59:07.470Z,10.90
2022-08-17T13:04:14.335Z,11.38
2022-08-17T13:09:35.771Z,11.40
2022-08-17T13:14:46.464Z,11.13
2022-08-17T13:19:50.222Z,11.82
2022-08-17T13:24:58.807Z,11.75
2022-08-17T13:30:05.920Z,12.73
2022-08-17T13:35:49.884Z,11.25
2022-08-17T13:40:53.551Z,12.00
2022-08-17T13:46:08.875Z,11.60
2022-08-17T13:51:25.565Z,12.65
2022-08-17T13:56:39.815Z,13.88
2022-08-17T14:01:53.528Z,13.90
2022-08-17T14:07:16.265Z,15.35
2022-08-17T14:12:21.959Z,14.10
2022-08-17T14:17:43.106Z,12.80
2022-08-17T14:23:03.952Z,14.50
2022-08-17T14:28:07.262Z,14.23
2022-08-17T14:33:09.901Z,14.27
2022-08-17T14:38:12.188Z,14.45
2022-08-17T14:43:35.167Z,14.10
2022-08-17T14:48:39.158Z,13.45
2022-08-17T14:53:42.335Z,13.05
2022-08-17T14:58:44.747Z,13.07
2022-08-17T15:03:47.867Z,12.52
2022-08-17T15:08:50.966Z,12.70
2022-08-17T15:13:53.445Z,11.40
2022-08-17T15:19:16.959Z,11.80
2022-08-17T15:24:19.342Z,10.77
2022-08-17T15:29:23.743Z,11.52
2022-08-17T15:34:26.059Z,12.15
2022-08-17T15:39:28.489Z,11.18
2022-08-17T15:44:32.586Z,11.27
2022-08-17T15:49:59.975Z,10.77
2022-08-17T15:55:24.179Z,11.07
2022-08-17T16:00:28.787Z,12.48
2022-08-17T16:05:31.576Z,17.17
2022-08-17T16:10:35.365Z,16.67
2022-08-17T16:15:38.385Z,13.65
2022-08-17T16:20:40.765Z,14.05
2022-08-17T16:25:52.731Z,19.88
2022-08-17T16:30:56.359Z,17.40
2022-08-17T16:36:18.094Z,20.20
2022-08-17T16:42:01.807Z,15.80
2022-08-17T16:47:04.996Z,15.55
2022-08-17T16:52:11.993Z,13.35
2022-08-17T16:57:15.397Z,14.30
2022-08-17T17:02:32.442Z,13.20
2022-08-17T17:08:03.653Z,11.43
2022-08-17T17:13:41.624Z,10.88
2022-08-17T17:19:08.191Z,11.50
2022-08-17T17:24:15.842Z,10.95
2022-08-17T17:29:47.692Z,10.00
2022-08-17T17:34:54.436Z,10.63
2022-08-17T17:40:23.515Z,10.07
2022-08-17T17:45:45.228Z,9.98
2022-08-17T17:52:08.729Z,9.57
2022-08-17T17:57:11.313Z,10.00
2022-08-17T18:02:52.241Z,9.77
2022-08-17T18:08:34.936Z,9.63
2022-08-17T18:13:57.662Z,9.45
2022-08-17T18:19:25.322Z,9.50
2022-08-17T18:24:39.914Z,8.50
2022-08-17T18:30:08.763Z,8.88
2022-08-17T18:35:32.874Z,9.80
2022-08-17T18:40:37.849Z,9.35
2022-08-17T18:45:43.247Z,10.15
2022-08-17T18:51:41.913Z,9.90
2022-08-17T18:56:59.641Z,11.00
2022-08-17T19:07:43.682Z,10.23
2022-08-17T19:13:12.705Z,10.60
2022-08-17T19:18:17.670Z,9.05
2022-08-17T19:23:36.699Z,8.20
2022-08-17T19:28:48.025Z,8.88
2022-08-17T19:34:11.622Z,8.80
2022-08-17T19:39:38.155Z,8.70
2022-08-17T19:44:59.807Z,8.13
2022-08-17T19:50:38.723Z,8.13
2022-08-17T19:56:12.682Z,7.30
2022-08-17T20:01:40.577Z,7.85
2022-08-17T20:06:44.783Z,8.43
2022-08-17T20:12:19.274Z,8.60
2022-08-17T20:22:49.697Z,9.32
2022-08-17T20:28:06.011Z,8.93
2022-08-17T20:33:27.858Z,10.98
2022-08-17T20:38:44.559Z,9.93
2022-08-17T20:44:07.377Z,9.57
2022-08-17T20:49:35.872Z,8.60
2022-08-17T20:54:57.572Z,8.50
2022-08-17T21:00:30.092Z,7.05
2022-08-17T21:05:57.321Z,7.78
2022-08-17T21:11:59.980Z,8.00
2022-08-17T21:17:20.353Z,8.52
2022-08-17T21:22:31.986Z,7.38
2022-08-17T21:28:07.382Z,8.13
2022-08-17T21:33:33.640Z,7.32
2022-08-17T21:38:48.009Z,7.65
2022-08-17T21:43:52.336Z,7.28
2022-08-17T21:48:55.633Z,7.57
2022-08-17T21:54:05.109Z,9.63
2022-08-17T21:59:34.871Z,7.85
2022-08-17T22:05:08.956Z,9.35
2022-08-17T22:10:50.689Z,8.27
2022-08-17T22:16:27.940Z,7.67
2022-08-17T22:21:31.488Z,6.77
2022-08-17T22:27:07.715Z,8.38
2022-08-17T22:32:41.698Z,7.13
2022-08-17T22:38:20.884Z,7.23
2022-08-17T22:43:28.829Z,6.80
2022-08-17T22:48:31.508Z,6.55
2022-08-17T22:53:53.785Z,7.07
2022-08-17T22:59:16.580Z,7.40
2022-08-17T23:04:46.325Z,7.43
2022-08-17T23:09:52.067Z,7.43
2022-08-17T23:15:02.359Z,6.93
2022-08-17T23:20:09.349Z,6.83
2022-08-17T23:25:32.113Z,7.07
2022-08-17T23:30:52.777Z,7.17
2022-08-17T23:35:55.115Z,7.90
2022-08-17T23:41:21.273Z,8.07
2022-08-17T23:46:44.610Z,7.70
2022-08-17T23:51:48.259Z,7.47
2022-08-17T23:56:50.695Z,8.57
